Time;durP1;ratioP1;P1;durP2;ratioP2;P2;SDS_P1;SDS_P2;PMS_P1;PMS_P2;Temp;Humidity;BMP_temperature;BMP_pressure;BME280_temperature;BME280_humidity;BME280_pressure;Samples;Min_cycle;Max_cycle;Signal;HPM_P1;HPM_P2
2022/12/22 03:26:02;;;;;;;13.55;11.90;;;;;;;;;;5011982;28;20278;-67
2022/12/22 03:28:27;;;;;;;12.23;10.20;;;;;;;;;;5012653;28;20679;-67
2022/12/22 03:30:54;;;;;;;13.60;10.85;;;;;;;;;;5011820;28;20216;-68
2022/12/22 03:33:20;;;;;;;13.50;10.48;;;;;;;;;;5011964;28;20266;-68
2022/12/22 03:35:45;;;;;;;15.02;11.50;;;;;;;;;;5011293;28;20208;-68
2022/12/22 03:38:11;;;;;;;12.82;11.00;;;;;;;;;;5011182;28;20295;-68
2022/12/22 03:40:36;;;;;;;13.10;10.98;;;;;;;;;;5012339;28;20259;-68
2022/12/22 03:46:29;;;;;;;28.23;10.57;;;;;;;;;;5011404;28;20315;-68
2022/12/22 03:49:10;;;;;;;10.52;9.00;;;;;;;;;;5011907;28;20705;-68
2022/12/22 03:51:36;;;;;;;10.93;9.75;;;;;;;;;;5011229;28;20215;-68
2022/12/22 03:54:02;;;;;;;9.63;8.63;;;;;;;;;;5010638;28;20220;-68
2022/12/22 03:56:27;;;;;;;12.00;10.52;;;;;;;;;;5012078;28;20574;-68
2022/12/22 03:58:52;;;;;;;12.88;11.15;;;;;;;;;;5011531;28;20220;-68
2022/12/22 04:01:17;;;;;;;15.60;11.60;;;;;;;;;;5011858;28;20300;-68
2022/12/22 04:03:43;;;;;;;9.63;8.40;;;;;;;;;;5015389;28;20216;-68
2022/12/22 04:06:08;;;;;;;8.88;7.90;;;;;;;;;;5014598;28;20291;-68
2022/12/22 04:08:33;;;;;;;10.68;9.05;;;;;;;;;;5015921;28;20683;-68
2022/12/22 04:13:42;;;;;;;14.95;11.82;;;;;;;;;;4986736;28;20228;-68
2022/12/22 04:16:07;;;;;;;28.75;11.93;;;;;;;;;;4978091;28;20776;-68
2022/12/22 04:18:33;;;;;;;22.97;12.70;;;;;;;;;;4981437;28;20209;-68
2022/12/22 04:20:58;;;;;;;11.10;9.18;;;;;;;;;;4985687;28;20216;-68
2022/12/22 04:23:23;;;;;;;50.90;10.90;;;;;;;;;;5004616;28;20574;-68
2022/12/22 04:25:48;;;;;;;11.48;9.75;;;;;;;;;;5005355;28;20232;-68
2022/12/22 04:28:14;;;;;;;15.32;10.98;;;;;;;;;;5004048;28;20216;-68
2022/12/22 04:30:39;;;;;;;11.27;9.68;;;;;;;;;;5003660;28;20216;-68
2022/12/22 04:33:04;;;;;;;157.48;15.25;;;;;;;;;;5002650;28;20227;-68
2022/12/22 04:35:29;;;;;;;206.07;16.50;;;;;;;;;;4984307;28;20248;-68
2022/12/22 04:37:55;;;;;;;208.73;17.85;;;;;;;;;;4977967;28;20213;-68
2022/12/22 04:40:20;;;;;;;15.30;11.02;;;;;;;;;;4994275;28;20306;-68
2022/12/22 04:42:45;;;;;;;15.18;12.43;;;;;;;;;;4985006;28;20216;-68
2022/12/22 04:45:10;;;;;;;14.60;12.20;;;;;;;;;;4984978;28;20430;-68
2022/12/22 04:47:36;;;;;;;16.98;12.85;;;;;;;;;;4983704;28;20217;-68
2022/12/22 04:50:01;;;;;;;17.52;14.15;;;;;;;;;;4984454;28;20225;-68
2022/12/22 04:52:26;;;;;;;21.80;14.73;;;;;;;;;;4985672;28;20213;-68
2022/12/22 04:54:52;;;;;;;24.90;13.93;;;;;;;;;;4983334;28;20259;-68
2022/12/22 04:57:17;;;;;;;16.00;13.57;;;;;;;;;;4978421;28;20406;-68
2022/12/22 04:59:42;;;;;;;19.75;14.70;;;;;;;;;;4977371;28;20543;-68
2022/12/22 05:02:07;;;;;;;22.00;14.95;;;;;;;;;;4976452;28;20778;-68
2022/12/22 05:04:33;;;;;;;17.23;13.18;;;;;;;;;;4984413;28;20221;-68
2022/12/22 05:06:58;;;;;;;16.98;13.20;;;;;;;;;;4985237;28;20336;-68
2022/12/22 05:09:23;;;;;;;15.82;12.63;;;;;;;;;;4983312;28;20217;-68
2022/12/22 05:11:49;;;;;;;13.50;11.15;;;;;;;;;;4985728;28;20589;-68
2022/12/22 05:14:14;;;;;;;14.57;12.10;;;;;;;;;;4984286;28;20578;-68
2022/12/22 05:16:39;;;;;;;14.63;12.10;;;;;;;;;;4984580;28;20209;-68
2022/12/22 05:19:04;;;;;;;14.43;11.10;;;;;;;;;;4980671;28;20988;-68
2022/12/22 05:21:30;;;;;;;39.97;13.55;;;;;;;;;;4975758;28;20581;-68
2022/12/22 05:23:55;;;;;;;14.43;12.00;;;;;;;;;;4976415;28;20256;-68
2022/12/22 05:26:20;;;;;;;14.77;11.88;;;;;;;;;;4980715;28;20221;-68
2022/12/22 05:28:46;;;;;;;16.48;12.27;;;;;;;;;;4983423;28;20209;-68
2022/12/22 05:31:15;;;;;;;13.93;11.75;;;;;;;;;;4998268;28;20232;-68
2022/12/22 05:33:40;;;;;;;12.52;10.15;;;;;;;;;;5014394;28;20208;-68
2022/12/22 05:36:05;;;;;;;10.20;8.82;;;;;;;;;;5013299;28;20208;-68
2022/12/22 05:38:30;;;;;;;10.50;8.98;;;;;;;;;;5013444;28;20303;-68
2022/12/22 05:40:56;;;;;;;9.10;8.02;;;;;;;;;;5005509;28;20287;-68
2022/12/22 05:43:21;;;;;;;10.32;9.23;;;;;;;;;;4993895;28;20292;-68
2022/12/22 05:45:46;;;;;;;11.60;9.15;;;;;;;;;;4993891;28;20213;-68
2022/12/22 05:48:12;;;;;;;9.93;8.77;;;;;;;;;;4993947;28;20229;-68
2022/12/22 05:50:37;;;;;;;10.85;8.85;;;;;;;;;;5009256;28;20213;-68
2022/12/22 05:53:02;;;;;;;10.73;9.07;;;;;;;;;;4985919;28;20217;-68
2022/12/22 05:55:28;;;;;;;9.70;8.70;;;;;;;;;;4999158;28;20326;-68
2022/12/22 05:57:53;;;;;;;9.50;8.30;;;;;;;;;;4984604;28;20220;-68
2022/12/22 06:00:18;;;;;;;11.75;8.35;;;;;;;;;;4983310;28;20219;-68
2022/12/22 06:02:44;;;;;;;11.55;8.77;;;;;;;;;;4984388;28;20307;-68
2022/12/22 06:05:09;;;;;;;11.73;8.75;;;;;;;;;;4991517;28;20225;-68
2022/12/22 06:07:35;;;;;;;9.77;8.13;;;;;;;;;;4976431;28;21188;-68
2022/12/22 06:10:00;;;;;;;7.55;6.60;;;;;;;;;;4977018;28;20651;-68
2022/12/22 06:12:25;;;;;;;11.13;8.98;;;;;;;;;;4996639;28;20210;-68
2022/12/22 06:14:50;;;;;;;11.20;9.27;;;;;;;;;;4984508;28;20622;-68
2022/12/22 06:17:16;;;;;;;10.82;9.05;;;;;;;;;;4983357;28;20213;-68
2022/12/22 06:19:41;;;;;;;13.00;9.88;;;;;;;;;;4998250;28;20219;-68
2022/12/22 06:22:06;;;;;;;8.65;7.25;;;;;;;;;;4983412;28;20751;-68
2022/12/22 06:24:31;;;;;;;9.85;6.68;;;;;;;;;;4983316;28;20316;-68
2022/12/22 06:26:57;;;;;;;8.27;6.18;;;;;;;;;;4979430;28;20217;-68
2022/12/22 06:29:22;;;;;;;6.88;5.93;;;;;;;;;;4975554;28;20775;-68
2022/12/22 06:31:47;;;;;;;8.65;7.75;;;;;;;;;;4984677;28;20466;-68
2022/12/22 06:34:16;;;;;;;9.88;8.15;;;;;;;;;;4993171;28;20225;-68
2022/12/22 06:36:41;;;;;;;11.55;8.88;;;;;;;;;;4983791;28;20213;-68
2022/12/22 06:39:07;;;;;;;11.43;9.25;;;;;;;;;;4983296;28;20223;-68
2022/12/22 06:44:16;;;;;;;18.42;13.13;;;;;;;;;;4991132;28;20800;-68
2022/12/22 06:46:41;;;;;;;19.38;13.45;;;;;;;;;;5003079;28;20220;-69
2022/12/22 06:49:06;;;;;;;23.35;14.57;;;;;;;;;;4998924;28;20299;-68
2022/12/22 06:51:32;;;;;;;19.88;13.20;;;;;;;;;;4987672;28;21259;-68
2022/12/22 06:53:57;;;;;;;25.75;14.98;;;;;;;;;;4994684;28;20618;-68
2022/12/22 06:56:22;;;;;;;19.05;13.20;;;;;;;;;;4982570;28;20271;-68
2022/12/22 06:58:47;;;;;;;20.50;13.30;;;;;;;;;;4998347;28;20702;-67
2022/12/22 07:01:13;;;;;;;25.52;14.20;;;;;;;;;;4982689;28;20251;-68
2022/12/22 07:03:38;;;;;;;20.52;12.43;;;;;;;;;;4982487;28;20224;-68
2022/12/22 07:06:03;;;;;;;17.52;11.45;;;;;;;;;;4982189;28;20217;-67
2022/12/22 07:08:29;;;;;;;16.00;10.65;;;;;;;;;;4982510;28;20566;-67
2022/12/22 07:11:00;;;;;;;18.48;11.40;;;;;;;;;;4986958;28;20555;-68
2022/12/22 07:13:27;;;;;;;15.40;10.35;;;;;;;;;;5004665;28;20263;-69
2022/12/22 07:15:53;;;;;;;17.20;10.13;;;;;;;;;;5001916;28;20569;-69
2022/12/22 07:18:18;;;;;;;17.75;10.50;;;;;;;;;;5011994;28;20218;-68
2022/12/22 07:20:43;;;;;;;20.40;12.80;;;;;;;;;;5026954;28;20427;-67
2022/12/22 07:23:09;;;;;;;16.88;9.98;;;;;;;;;;5011006;28;20213;-64
2022/12/22 07:25:34;;;;;;;16.10;10.18;;;;;;;;;;5012608;28;20239;-66
2022/12/22 07:27:59;;;;;;;17.00;10.52;;;;;;;;;;5012601;28;20215;-66
2022/12/22 07:30:25;;;;;;;15.77;9.93;;;;;;;;;;5010454;28;20226;-68
2022/12/22 07:32:50;;;;;;;19.30;10.65;;;;;;;;;;5011891;28;20220;-68
2022/12/22 07:35:15;;;;;;;14.90;9.68;;;;;;;;;;5011023;28;20292;-68
2022/12/22 07:37:40;;;;;;;15.15;10.07;;;;;;;;;;5014714;28;20539;-68
2022/12/22 07:40:06;;;;;;;29.08;11.85;;;;;;;;;;5013054;28;20266;-68
2022/12/22 07:42:43;;;;;;;17.02;10.23;;;;;;;;;;5015215;28;20212;-68
2022/12/22 07:45:11;;;;;;;13.63;9.63;;;;;;;;;;5014597;28;20295;-67
2022/12/22 07:47:36;;;;;;;15.93;10.07;;;;;;;;;;5011458;28;20300;-70
2022/12/22 07:52:46;;;;;;;15.57;11.27;;;;;;;;;;5013366;28;20481;-68
2022/12/22 07:55:11;;;;;;;13.80;9.87;;;;;;;;;;5005770;28;20216;-68
2022/12/22 07:57:36;;;;;;;13.98;9.55;;;;;;;;;;5012285;28;20240;-67
2022/12/22 08:00:02;;;;;;;16.13;9.88;;;;;;;;;;5015255;28;20602;-66
2022/12/22 08:02:27;;;;;;;16.35;11.15;;;;;;;;;;5015380;28;20222;-67
2022/12/22 08:04:53;;;;;;;14.25;10.15;;;;;;;;;;5005112;28;20628;-67
2022/12/22 08:07:18;;;;;;;15.03;10.20;;;;;;;;;;5014544;28;20434;-66
2022/12/22 08:09:43;;;;;;;17.65;11.57;;;;;;;;;;5014846;28;20282;-66
2022/12/22 08:12:09;;;;;;;16.67;11.23;;;;;;;;;;5014157;28;20239;-66
2022/12/22 08:14:34;;;;;;;16.45;11.15;;;;;;;;;;5009267;28;20573;-67
2022/12/22 08:16:59;;;;;;;17.92;12.18;;;;;;;;;;5015092;28;20238;-67
2022/12/22 08:19:25;;;;;;;20.73;12.48;;;;;;;;;;5014080;28;20220;-68
2022/12/22 08:21:50;;;;;;;21.55;14.00;;;;;;;;;;5014898;28;20703;-67
2022/12/22 08:24:15;;;;;;;24.55;14.35;;;;;;;;;;5014255;28;20212;-67
2022/12/22 08:26:41;;;;;;;23.92;14.57;;;;;;;;;;5013842;28;20224;-67
2022/12/22 08:29:13;;;;;;;21.98;13.70;;;;;;;;;;5014000;28;20750;-67
2022/12/22 08:31:39;;;;;;;25.42;15.23;;;;;;;;;;5014485;28;20227;-67
2022/12/22 08:34:05;;;;;;;24.75;14.38;;;;;;;;;;5004513;28;20209;-67
2022/12/22 08:36:30;;;;;;;24.92;16.20;;;;;;;;;;5005362;28;20624;-67
2022/12/22 08:38:55;;;;;;;27.02;15.85;;;;;;;;;;5021670;28;20219;-67
2022/12/22 08:41:48;;;;;;;26.73;15.20;;;;;;;;;;5011395;28;20220;-67
2022/12/22 08:44:07;;;;;;;28.85;15.25;;;;;;;;;;5009692;28;20225;-67
2022/12/22 08:46:32;;;;;;;28.23;16.55;;;;;;;;;;5014838;28;20223;-67
2022/12/22 08:48:58;;;;;;;29.95;17.20;;;;;;;;;;5008191;28;20216;-67
2022/12/22 08:51:23;;;;;;;29.92;17.05;;;;;;;;;;5013387;28;20208;-67
2022/12/22 08:53:48;;;;;;;29.38;17.08;;;;;;;;;;5014272;28;20204;-67
2022/12/22 08:56:13;;;;;;;28.25;16.58;;;;;;;;;;5014601;28;20208;-67
2022/12/22 08:58:39;;;;;;;29.38;16.77;;;;;;;;;;5013546;28;20706;-67
2022/12/22 09:01:04;;;;;;;31.75;17.20;;;;;;;;;;5013450;28;20204;-67
2022/12/22 09:03:30;;;;;;;28.15;16.98;;;;;;;;;;5014274;28;20208;-67
2022/12/22 09:06:01;;;;;;;30.33;17.25;;;;;;;;;;5014452;28;20216;-67
2022/12/22 09:08:26;;;;;;;76.47;44.47;;;;;;;;;;5011725;28;20224;-68
2022/12/22 09:10:52;;;;;;;35.40;20.02;;;;;;;;;;5014353;28;20209;-67
2022/12/22 09:13:17;;;;;;;32.72;18.83;;;;;;;;;;5012545;28;20208;-68
2022/12/22 09:15:42;;;;;;;32.10;18.70;;;;;;;;;;5013262;28;20220;-67
2022/12/22 09:18:07;;;;;;;30.80;17.23;;;;;;;;;;5013596;28;20262;-67
2022/12/22 09:20:33;;;;;;;29.33;17.25;;;;;;;;;;5013795;28;20220;-68
2022/12/22 09:22:59;;;;;;;31.27;17.30;;;;;;;;;;5013637;28;20679;-68
2022/12/22 09:25:25;;;;;;;28.75;17.02;;;;;;;;;;5013286;28;20231;-68
2022/12/22 09:27:50;;;;;;;32.28;18.45;;;;;;;;;;5014005;28;20235;-68
2022/12/22 09:30:15;;;;;;;32.55;18.83;;;;;;;;;;5013300;28;20240;-68
2022/12/22 09:32:41;;;;;;;35.50;19.23;;;;;;;;;;5014156;28;20256;-68
2022/12/22 09:35:06;;;;;;;34.20;19.40;;;;;;;;;;5013608;28;20226;-68
2022/12/22 09:37:31;;;;;;;35.45;19.08;;;;;;;;;;5013650;28;20216;-68
2022/12/22 09:39:56;;;;;;;32.03;17.60;;;;;;;;;;5014006;28;20247;-68
2022/12/22 09:42:22;;;;;;;30.95;17.58;;;;;;;;;;5013568;28;20228;-68
2022/12/22 09:44:49;;;;;;;30.50;18.00;;;;;;;;;;5013455;28;20224;-68
2022/12/22 09:47:17;;;;;;;32.95;19.20;;;;;;;;;;5013768;28;20212;-68
2022/12/22 09:49:43;;;;;;;31.20;18.13;;;;;;;;;;5012386;28;20252;-68
2022/12/22 09:52:17;;;;;;;31.40;17.35;;;;;;;;;;5012930;28;20323;-68
2022/12/22 09:54:42;;;;;;;29.73;17.13;;;;;;;;;;5012569;28;20682;-69
2022/12/22 09:57:09;;;;;;;29.88;17.95;;;;;;;;;;5012652;28;20227;-67
2022/12/22 09:59:34;;;;;;;28.42;16.48;;;;;;;;;;5012637;28;20216;-68
2022/12/22 10:02:09;;;;;;;26.27;15.48;;;;;;;;;;5012674;28;20216;-68
2022/12/22 10:04:48;;;;;;;24.83;14.15;;;;;;;;;;5012206;28;20302;-68
2022/12/22 10:07:21;;;;;;;21.33;12.48;;;;;;;;;;4995353;28;20220;-68
2022/12/22 10:09:46;;;;;;;22.85;13.55;;;;;;;;;;4992773;28;20221;-68
2022/12/22 10:12:13;;;;;;;23.52;13.95;;;;;;;;;;4992945;28;20288;-68
2022/12/22 10:14:40;;;;;;;22.83;13.43;;;;;;;;;;4992960;28;20212;-68
2022/12/22 10:17:13;;;;;;;23.83;13.70;;;;;;;;;;4993650;28;20223;-68
2022/12/22 10:19:39;;;;;;;22.45;12.52;;;;;;;;;;4992689;28;20220;-68
2022/12/22 10:22:16;;;;;;;26.60;13.55;;;;;;;;;;4995439;28;20209;-68
2022/12/22 10:24:41;;;;;;;25.33;13.65;;;;;;;;;;4997266;28;20224;-68
2022/12/22 10:27:06;;;;;;;23.38;12.30;;;;;;;;;;4992447;28;20212;-67
2022/12/22 10:29:31;;;;;;;22.65;13.60;;;;;;;;;;4992340;28;20236;-68
2022/12/22 10:31:58;;;;;;;24.65;12.30;;;;;;;;;;4992356;28;20292;-68
2022/12/22 10:34:23;;;;;;;23.23;12.38;;;;;;;;;;4992051;28;20233;-68
2022/12/22 10:36:49;;;;;;;22.35;12.15;;;;;;;;;;4993718;28;20237;-68
2022/12/22 10:39:22;;;;;;;23.67;13.18;;;;;;;;;;4991590;28;20217;-68
2022/12/22 10:41:48;;;;;;;24.17;12.88;;;;;;;;;;4991972;28;20209;-68
2022/12/22 10:44:14;;;;;;;26.13;14.25;;;;;;;;;;4975204;28;20229;-68
2022/12/22 10:46:41;;;;;;;23.38;12.75;;;;;;;;;;4973267;28;20240;-69
2022/12/22 10:49:09;;;;;;;23.38;13.13;;;;;;;;;;4955840;28;20218;-68
2022/12/22 10:51:34;;;;;;;23.42;12.00;;;;;;;;;;4956598;28;20678;-68
2022/12/22 10:53:59;;;;;;;22.30;12.05;;;;;;;;;;4973117;28;20221;-68
2022/12/22 10:56:26;;;;;;;20.75;11.10;;;;;;;;;;4985678;28;20209;-68
2022/12/22 10:58:53;;;;;;;21.30;10.90;;;;;;;;;;4993375;28;20296;-68
2022/12/22 11:01:25;;;;;;;20.83;10.15;;;;;;;;;;4991973;28;20205;-66
2022/12/22 11:03:50;;;;;;;16.25;9.68;;;;;;;;;;4992775;28;20232;-67
2022/12/22 11:06:15;;;;;;;17.80;9.57;;;;;;;;;;4992398;28;20221;-70
2022/12/22 11:08:41;;;;;;;19.77;9.40;;;;;;;;;;4992481;28;20224;-68
2022/12/22 11:11:08;;;;;;;17.85;8.85;;;;;;;;;;4992053;28;20217;-68
2022/12/22 11:13:45;;;;;;;18.98;8.30;;;;;;;;;;4975811;28;20209;-69
2022/12/22 11:16:30;;;;;;;18.77;8.32;;;;;;;;;;4974367;28;20248;-72
2022/12/22 11:18:56;;;;;;;18.73;9.18;;;;;;;;;;4992495;28;20299;-69
2022/12/22 11:21:37;;;;;;;17.38;8.27;;;;;;;;;;4992388;28;20225;-69
2022/12/22 11:24:06;;;;;;;17.48;8.07;;;;;;;;;;4992350;28;20276;-68
2022/12/22 11:26:36;;;;;;;15.68;7.45;;;;;;;;;;4992484;28;20220;-69
2022/12/22 11:29:10;;;;;;;18.02;7.85;;;;;;;;;;4986660;28;20428;-69
2022/12/22 11:31:43;;;;;;;14.90;7.45;;;;;;;;;;5000478;28;20259;-70
2022/12/22 11:34:27;;;;;;;15.68;7.50;;;;;;;;;;5011004;28;20208;-69
2022/12/22 11:37:25;;;;;;;18.08;7.22;;;;;;;;;;5011616;28;20236;-69
2022/12/22 11:39:52;;;;;;;14.88;6.93;;;;;;;;;;5011111;28;20745;-70
2022/12/22 11:42:37;;;;;;;13.65;6.85;;;;;;;;;;5011848;28;20231;-69
2022/12/22 11:45:09;;;;;;;16.83;7.85;;;;;;;;;;5010448;28;20273;-68
2022/12/22 11:47:38;;;;;;;15.52;7.25;;;;;;;;;;5012494;28;20208;-69
2022/12/22 11:50:09;;;;;;;14.90;7.30;;;;;;;;;;5010115;28;20239;-68
2022/12/22 11:52:40;;;;;;;13.48;7.82;;;;;;;;;;5012293;28;20333;-69
2022/12/22 11:55:21;;;;;;;15.45;7.95;;;;;;;;;;5011535;28;20217;-68
2022/12/22 11:57:51;;;;;;;20.55;8.70;;;;;;;;;;5010128;28;20244;-69
2022/12/22 12:00:17;;;;;;;16.02;7.88;;;;;;;;;;5011477;28;20212;-69
2022/12/22 12:03:01;;;;;;;18.85;9.85;;;;;;;;;;5011042;28;20216;-69
2022/12/22 12:05:43;;;;;;;18.73;10.55;;;;;;;;;;5011061;28;20220;-68
2022/12/22 12:08:09;;;;;;;17.67;10.00;;;;;;;;;;5011434;28;20219;-68
2022/12/22 12:10:40;;;;;;;20.40;10.70;;;;;;;;;;5012251;28;20212;-69
2022/12/22 12:13:09;;;;;;;18.23;11.32;;;;;;;;;;5011145;28;20216;-68
2022/12/22 12:15:44;;;;;;;20.65;11.95;;;;;;;;;;5011811;28;20734;-68
2022/12/22 12:18:15;;;;;;;23.20;11.80;;;;;;;;;;5010828;28;20212;-68
2022/12/22 12:20:51;;;;;;;22.40;12.30;;;;;;;;;;5011967;28;20211;-68
2022/12/22 12:23:32;;;;;;;23.55;13.60;;;;;;;;;;5012352;28;20204;-68
2022/12/22 12:26:00;;;;;;;21.15;12.57;;;;;;;;;;5013438;28;20627;-68
2022/12/22 12:28:25;;;;;;;22.80;13.00;;;;;;;;;;5013628;28;20209;-68
2022/12/22 12:30:57;;;;;;;23.27;13.75;;;;;;;;;;5015287;28;20218;-69
2022/12/22 12:33:26;;;;;;;22.17;13.15;;;;;;;;;;5014197;28;20230;-68
2022/12/22 12:35:59;;;;;;;21.23;13.85;;;;;;;;;;5014074;28;20212;-68
2022/12/22 12:38:27;;;;;;;23.58;14.15;;;;;;;;;;5013623;28;20656;-68
2022/12/22 12:40:58;;;;;;;24.92;14.30;;;;;;;;;;5014676;28;20220;-69
2022/12/22 12:43:23;;;;;;;26.33;14.52;;;;;;;;;;5014286;28;20208;-67
2022/12/22 12:45:49;;;;;;;26.75;15.02;;;;;;;;;;5014086;28;20216;-67
2022/12/22 12:48:20;;;;;;;26.80;14.93;;;;;;;;;;5014029;28;20208;-67
2022/12/22 12:50:46;;;;;;;25.40;14.75;;;;;;;;;;5015193;28;20212;-68
2022/12/22 12:53:11;;;;;;;24.80;14.40;;;;;;;;;;5013915;28;20274;-66
2022/12/22 12:55:37;;;;;;;24.85;15.02;;;;;;;;;;5010279;28;20240;-67
2022/12/22 12:58:03;;;;;;;27.35;15.13;;;;;;;;;;5014527;28;20224;-67
2022/12/22 13:00:31;;;;;;;27.23;15.82;;;;;;;;;;5014005;28;20223;-67
2022/12/22 13:02:57;;;;;;;24.70;15.27;;;;;;;;;;5014989;28;20300;-68
2022/12/22 13:05:27;;;;;;;24.55;14.30;;;;;;;;;;5014254;28;20303;-67
2022/12/22 13:08:10;;;;;;;24.25;13.57;;;;;;;;;;5014123;28;20209;-68
2022/12/22 13:10:36;;;;;;;20.15;12.27;;;;;;;;;;5013465;28;20211;-68
2022/12/22 13:13:01;;;;;;;17.23;10.85;;;;;;;;;;5014085;28;20744;-67
2022/12/22 13:15:27;;;;;;;22.75;9.23;;;;;;;;;;5013867;28;20220;-67
2022/12/22 13:17:52;;;;;;;16.63;8.52;;;;;;;;;;5014717;28;20212;-67
2022/12/22 13:20:19;;;;;;;19.08;9.20;;;;;;;;;;5014250;28;20606;-67
2022/12/22 13:22:45;;;;;;;18.15;9.00;;;;;;;;;;5012528;28;20216;-67
2022/12/22 13:25:13;;;;;;;15.43;8.43;;;;;;;;;;4994003;28;20232;-67
2022/12/22 13:27:38;;;;;;;18.30;8.52;;;;;;;;;;4995175;28;20220;-68
2022/12/22 13:30:04;;;;;;;15.77;8.43;;;;;;;;;;4993319;28;20213;-65
2022/12/22 13:32:32;;;;;;;16.13;8.07;;;;;;;;;;5009612;28;20278;-67
2022/12/22 13:35:00;;;;;;;15.13;8.00;;;;;;;;;;4991514;28;20207;-67
2022/12/22 13:37:26;;;;;;;19.13;8.35;;;;;;;;;;5002167;28;20217;-66
2022/12/22 13:40:05;;;;;;;16.48;8.27;;;;;;;;;;4977033;28;20826;-66
2022/12/22 13:42:32;;;;;;;20.92;8.68;;;;;;;;;;4993385;28;20711;-67
2022/12/22 13:44:59;;;;;;;18.55;8.80;;;;;;;;;;4976623;28;20618;-66
2022/12/22 13:47:24;;;;;;;17.98;10.85;;;;;;;;;;4976650;28;20219;-66
2022/12/22 13:49:49;;;;;;;19.73;11.75;;;;;;;;;;4993562;28;20205;-66
2022/12/22 13:52:17;;;;;;;17.38;11.30;;;;;;;;;;4993837;28;20221;-66
2022/12/22 13:54:42;;;;;;;18.85;11.75;;;;;;;;;;4994197;28;20212;-66
2022/12/22 13:57:15;;;;;;;24.23;13.95;;;;;;;;;;4994140;28;20220;-66
2022/12/22 13:59:41;;;;;;;22.80;13.88;;;;;;;;;;4993658;28;20215;-66
2022/12/22 14:02:07;;;;;;;23.60;14.90;;;;;;;;;;5012910;28;20255;-66
2022/12/22 14:04:32;;;;;;;22.35;15.00;;;;;;;;;;5012940;28;20244;-66
2022/12/22 14:07:08;;;;;;;27.90;15.80;;;;;;;;;;5013508;28;21372;-66
2022/12/22 14:09:34;;;;;;;26.75;16.50;;;;;;;;;;4995199;28;20208;-66
2022/12/22 14:11:59;;;;;;;24.27;15.40;;;;;;;;;;5012422;28;20208;-67
2022/12/22 14:14:26;;;;;;;23.95;15.48;;;;;;;;;;5012192;28;20212;-66
2022/12/22 14:16:52;;;;;;;24.33;16.52;;;;;;;;;;5012833;28;20217;-66
2022/12/22 14:19:18;;;;;;;25.92;17.45;;;;;;;;;;5011574;28;20228;-66
2022/12/22 14:21:44;;;;;;;26.63;17.00;;;;;;;;;;5013011;28;20204;-66
2022/12/22 14:24:11;;;;;;;25.05;16.90;;;;;;;;;;4994630;28;20232;-66
2022/12/22 14:26:37;;;;;;;24.23;16.60;;;;;;;;;;5009850;28;20362;-67
2022/12/22 14:29:02;;;;;;;22.98;16.17;;;;;;;;;;4994673;28;20295;-66
2022/12/22 14:31:28;;;;;;;22.95;16.20;;;;;;;;;;5011444;28;20227;-66
2022/12/22 14:33:55;;;;;;;26.55;16.15;;;;;;;;;;5011556;28;20582;-66
2022/12/22 14:36:25;;;;;;;28.17;18.25;;;;;;;;;;5011958;28;20350;-64
2022/12/22 14:38:51;;;;;;;24.67;15.60;;;;;;;;;;4994282;28;20224;-66
2022/12/22 14:41:40;;;;;;;28.13;18.52;;;;;;;;;;5009056;28;20208;-65
2022/12/22 14:44:12;;;;;;;26.67;18.02;;;;;;;;;;5010859;28;20224;-65
2022/12/22 14:46:37;;;;;;;30.23;18.40;;;;;;;;;;5011545;28;20213;-67
2022/12/22 14:49:03;;;;;;;29.70;19.50;;;;;;;;;;5012331;28;20675;-68
2022/12/22 14:51:28;;;;;;;29.10;19.73;;;;;;;;;;5013012;28;20220;-69
2022/12/22 14:53:54;;;;;;;29.00;19.77;;;;;;;;;;5012321;28;20366;-69
2022/12/22 14:56:20;;;;;;;27.45;19.17;;;;;;;;;;5001096;28;20209;-69
2022/12/22 14:58:45;;;;;;;32.05;20.30;;;;;;;;;;4997280;28;20223;-69
2022/12/22 15:01:10;;;;;;;30.40;20.92;;;;;;;;;;4997566;28;20270;-68
2022/12/22 15:03:36;;;;;;;34.38;21.35;;;;;;;;;;4999636;28;20212;-69
2022/12/22 15:06:23;;;;;;;29.52;20.75;;;;;;;;;;5003871;28;20231;-68
2022/12/22 15:08:48;;;;;;;30.52;20.98;;;;;;;;;;5006199;28;20208;-68
2022/12/22 15:11:14;;;;;;;30.80;19.48;;;;;;;;;;5006051;28;20294;-68
2022/12/22 15:13:39;;;;;;;30.30;20.48;;;;;;;;;;5005793;28;20236;-69
2022/12/22 15:16:05;;;;;;;30.45;20.50;;;;;;;;;;5006164;28;20209;-69
2022/12/22 15:18:30;;;;;;;27.90;19.67;;;;;;;;;;5006183;28;20208;-68
2022/12/22 15:20:55;;;;;;;28.92;20.25;;;;;;;;;;4999773;28;20453;-69
2022/12/22 15:23:21;;;;;;;27.73;19.40;;;;;;;;;;4996573;28;20208;-68
2022/12/22 15:25:46;;;;;;;28.30;18.95;;;;;;;;;;4998943;28;20228;-69
2022/12/22 15:28:11;;;;;;;31.40;20.27;;;;;;;;;;5002182;28;20643;-68
2022/12/22 15:30:37;;;;;;;30.70;19.90;;;;;;;;;;5005342;28;20216;-68
2022/12/22 15:33:02;;;;;;;30.98;19.60;;;;;;;;;;5005677;28;20643;-68
2022/12/22 15:35:31;;;;;;;28.33;19.83;;;;;;;;;;5005381;28;20219;-69
2022/12/22 15:37:56;;;;;;;30.63;20.60;;;;;;;;;;5006518;28;20209;-69
2022/12/22 15:40:22;;;;;;;29.05;20.73;;;;;;;;;;5004221;28;20522;-69
2022/12/22 15:42:47;;;;;;;29.05;20.00;;;;;;;;;;5003593;28;20579;-69
2022/12/22 15:45:13;;;;;;;29.27;20.05;;;;;;;;;;4995761;28;20522;-69
2022/12/22 15:47:39;;;;;;;32.22;21.27;;;;;;;;;;4998507;28;20734;-69
2022/12/22 15:50:05;;;;;;;30.70;21.10;;;;;;;;;;4998116;28;20274;-68
2022/12/22 15:52:30;;;;;;;27.85;19.27;;;;;;;;;;5005950;28;20205;-69
2022/12/22 15:54:56;;;;;;;29.10;20.38;;;;;;;;;;5006482;28;20223;-68
2022/12/22 15:57:21;;;;;;;31.50;19.73;;;;;;;;;;5008825;28;20204;-68
2022/12/22 15:59:46;;;;;;;31.20;20.52;;;;;;;;;;5016772;28;20245;-68
2022/12/22 16:02:12;;;;;;;29.80;20.42;;;;;;;;;;5015834;28;20292;-68
2022/12/22 16:04:37;;;;;;;29.98;20.52;;;;;;;;;;5015160;28;20632;-69
2022/12/22 16:07:02;;;;;;;30.98;21.50;;;;;;;;;;5015297;28;20746;-67
2022/12/22 16:09:31;;;;;;;30.08;21.33;;;;;;;;;;5015873;28;20215;-68
2022/12/22 16:11:56;;;;;;;31.15;21.45;;;;;;;;;;5015076;28;20220;-69
2022/12/22 16:14:21;;;;;;;29.05;19.65;;;;;;;;;;5015655;28;20291;-68
2022/12/22 16:16:47;;;;;;;32.10;19.35;;;;;;;;;;5016097;28;20236;-68
2022/12/22 16:19:13;;;;;;;29.85;19.55;;;;;;;;;;5014640;28;20220;-68
2022/12/22 16:21:38;;;;;;;29.10;19.67;;;;;;;;;;5015950;28;20212;-69
2022/12/22 16:24:04;;;;;;;28.77;18.33;;;;;;;;;;5022825;28;20236;-68
2022/12/22 16:26:29;;;;;;;25.27;17.85;;;;;;;;;;5014375;28;20695;-69
2022/12/22 16:28:57;;;;;;;28.80;18.13;;;;;;;;;;5014330;28;20224;-69
2022/12/22 16:31:22;;;;;;;27.92;18.45;;;;;;;;;;5014239;28;20243;-69
2022/12/22 16:33:47;;;;;;;32.92;19.45;;;;;;;;;;5014118;28;20298;-69
2022/12/22 16:36:13;;;;;;;29.20;20.42;;;;;;;;;;5015183;28;20561;-68
2022/12/22 16:38:38;;;;;;;28.17;19.75;;;;;;;;;;5013404;28;20215;-69
2022/12/22 16:41:04;;;;;;;31.95;19.92;;;;;;;;;;5014997;28;20224;-68
2022/12/22 16:43:30;;;;;;;32.42;18.77;;;;;;;;;;5013935;28;20209;-69
2022/12/22 16:45:55;;;;;;;29.55;18.77;;;;;;;;;;5014665;28;20312;-69
2022/12/22 16:48:23;;;;;;;28.95;19.40;;;;;;;;;;5013515;28;20297;-69
2022/12/22 16:50:48;;;;;;;28.45;18.30;;;;;;;;;;5014084;28;20212;-69
2022/12/22 16:53:14;;;;;;;27.30;18.30;;;;;;;;;;5014178;28;20582;-69
2022/12/22 16:55:39;;;;;;;27.85;18.10;;;;;;;;;;5014987;28;20239;-69
2022/12/22 16:58:05;;;;;;;29.92;17.85;;;;;;;;;;5019912;28;20692;-69
2022/12/22 17:00:30;;;;;;;25.45;17.13;;;;;;;;;;5000448;28;20208;-69
2022/12/22 17:02:57;;;;;;;28.08;17.25;;;;;;;;;;4995475;28;20304;-69
2022/12/22 17:05:24;;;;;;;23.90;16.63;;;;;;;;;;5007420;28;20228;-69
2022/12/22 17:07:49;;;;;;;27.35;17.50;;;;;;;;;;5014068;28;20204;-69
2022/12/22 17:10:15;;;;;;;30.45;18.52;;;;;;;;;;5013613;28;20344;-69
2022/12/22 17:12:40;;;;;;;29.80;17.80;;;;;;;;;;5014938;28;20209;-69
2022/12/22 17:15:05;;;;;;;26.83;17.15;;;;;;;;;;5012230;28;20259;-69
2022/12/22 17:17:31;;;;;;;22.95;16.05;;;;;;;;;;5014975;28;20212;-69
2022/12/22 17:19:56;;;;;;;25.90;15.82;;;;;;;;;;5014492;28;20216;-69
2022/12/22 17:22:39;;;;;;;23.95;16.48;;;;;;;;;;5013412;28;20208;-70
2022/12/22 17:25:06;;;;;;;26.45;16.77;;;;;;;;;;5014057;28;20243;-70
2022/12/22 17:27:32;;;;;;;29.65;18.35;;;;;;;;;;5014051;28;20214;-71
2022/12/22 17:29:57;;;;;;;32.60;19.85;;;;;;;;;;4996731;28;20216;-70
2022/12/22 17:32:22;;;;;;;25.73;17.38;;;;;;;;;;5012603;28;20231;-69
2022/12/22 17:34:48;;;;;;;26.15;17.98;;;;;;;;;;5012224;28;20205;-70
2022/12/22 17:37:13;;;;;;;38.40;21.40;;;;;;;;;;5013839;28;20212;-69
2022/12/22 17:39:39;;;;;;;33.65;20.23;;;;;;;;;;5013162;28;20205;-70
2022/12/22 17:42:13;;;;;;;28.90;18.65;;;;;;;;;;5013317;28;20216;-69
2022/12/22 17:44:39;;;;;;;26.67;18.05;;;;;;;;;;5012739;28;20683;-70
2022/12/22 17:47:04;;;;;;;26.58;18.15;;;;;;;;;;5013745;28;20216;-69
2022/12/22 17:49:29;;;;;;;29.17;17.63;;;;;;;;;;5013323;28;20212;-69
2022/12/22 17:51:55;;;;;;;24.92;17.00;;;;;;;;;;5013886;28;20212;-69
2022/12/22 17:54:21;;;;;;;26.05;17.00;;;;;;;;;;5013664;28;20221;-70
2022/12/22 17:56:46;;;;;;;26.80;18.50;;;;;;;;;;4996375;28;20216;-70